createdAt,value
2022-10-19T00:00:05.268Z,0.60
2022-10-19T00:02:32.382Z,2.92
2022-10-19T00:04:59.508Z,4.03
2022-10-19T00:07:26.513Z,1.70
2022-10-19T00:09:53.811Z,3.88
2022-10-19T00:12:20.861Z,1.77
2022-10-19T00:14:47.956Z,0.80
2022-10-19T00:17:15.074Z,0.77
2022-10-19T00:19:42.169Z,3.88
2022-10-19T00:22:13.011Z,3.85
2022-10-19T00:24:41.317Z,0.88
2022-10-19T00:27:08.353Z,0.63
2022-10-19T00:29:35.450Z,1.27
2022-10-19T00:32:02.526Z,2.00
2022-10-19T00:34:29.572Z,1.02
2022-10-19T00:36:57.134Z,0.77
2022-10-19T00:39:24.191Z,0.65
2022-10-19T00:41:51.286Z,1.35
2022-10-19T00:44:18.383Z,0.82
2022-10-19T00:46:48.944Z,1.00
2022-10-19T00:49:19.225Z,0.60
2022-10-19T00:51:50.380Z,0.68
2022-10-19T00:54:18.756Z,1.73
2022-10-19T00:56:48.729Z,0.60
2022-10-19T00:59:19.013Z,1.83
2022-10-19T01:01:47.036Z,0.57
2022-10-19T01:04:14.862Z,2.05
2022-10-19T01:06:42.398Z,0.65
2022-10-19T01:09:09.465Z,1.48
2022-10-19T01:12:00.533Z,0.90
2022-10-19T01:15:06.341Z,1.38
2022-10-19T01:17:55.351Z,0.63
2022-10-19T01:20:28.272Z,8.02
2022-10-19T01:23:14.218Z,3.03
2022-10-19T01:25:53.204Z,0.45
2022-10-19T01:28:48.007Z,0.50
2022-10-19T01:31:27.458Z,1.48
2022-10-19T01:34:17.944Z,0.50
2022-10-19T01:36:59.476Z,0.75
2022-10-19T01:39:45.252Z,0.47
2022-10-19T01:42:23.374Z,0.68
2022-10-19T01:45:07.278Z,3.22
2022-10-19T01:47:48.164Z,0.85
2022-10-19T01:50:32.034Z,0.35
2022-10-19T01:52:59.959Z,0.68
2022-10-19T01:55:28.155Z,0.45
2022-10-19T01:58:03.652Z,3.90
2022-10-19T02:00:35.448Z,0.77
2022-10-19T02:03:06.252Z,0.40
2022-10-19T02:05:36.018Z,0.60
2022-10-19T02:08:12.258Z,1.08
2022-10-19T02:10:42.193Z,4.93
2022-10-19T02:13:12.262Z,0.50
2022-10-19T02:15:43.814Z,1.10
2022-10-19T02:18:13.711Z,1.73
2022-10-19T02:20:40.753Z,2.15
2022-10-19T02:23:08.959Z,1.30
2022-10-19T02:25:36.673Z,0.95
2022-10-19T02:28:04.926Z,2.10
2022-10-19T02:30:32.368Z,0.47
2022-10-19T02:32:59.542Z,2.22
2022-10-19T02:35:26.830Z,0.73
2022-10-19T02:37:54.732Z,0.65
2022-10-19T02:40:23.003Z,2.13
2022-10-19T02:43:00.422Z,2.83
2022-10-19T02:45:38.495Z,0.28
2022-10-19T02:48:14.441Z,0.60
2022-10-19T02:50:48.333Z,1.05
2022-10-19T02:53:16.596Z,4.78
2022-10-19T02:55:44.333Z,1.40
2022-10-19T02:58:11.497Z,2.38
2022-10-19T03:00:38.787Z,0.95
2022-10-19T03:03:06.481Z,1.98
2022-10-19T03:05:33.937Z,0.40
2022-10-19T03:08:01.361Z,0.40
2022-10-19T03:10:29.493Z,0.50
2022-10-19T03:12:58.598Z,0.30
2022-10-19T03:15:29.242Z,3.60
2022-10-19T03:17:57.156Z,2.28
2022-10-19T03:20:24.374Z,0.45
2022-10-19T03:25:23.506Z,1.52
2022-10-19T03:27:50.570Z,2.15
2022-10-19T03:30:17.707Z,0.90
2022-10-19T03:32:44.988Z,2.47
2022-10-19T03:35:11.972Z,1.85
2022-10-19T03:37:39.046Z,0.32
2022-10-19T03:40:06.487Z,2.63
2022-10-19T03:42:33.519Z,1.00
2022-10-19T03:45:00.687Z,0.43
2022-10-19T03:47:27.778Z,0.73
2022-10-19T03:49:54.881Z,0.52
2022-10-19T03:52:21.954Z,0.55
2022-10-19T03:54:52.114Z,0.80
2022-10-19T03:57:19.378Z,1.02
2022-10-19T03:59:46.523Z,0.73
2022-10-19T04:02:13.679Z,1.58
2022-10-19T04:04:40.868Z,0.50
2022-10-19T04:07:07.955Z,1.33
2022-10-19T04:09:35.250Z,0.50
2022-10-19T04:12:03.089Z,0.30
2022-10-19T04:14:33.291Z,0.73
2022-10-19T04:17:06.399Z,0.50
2022-10-19T04:19:33.605Z,0.30
2022-10-19T04:22:00.958Z,0.52
2022-10-19T04:24:28.542Z,0.50
2022-10-19T04:26:56.613Z,1.85
2022-10-19T04:29:29.418Z,1.23
2022-10-19T04:31:58.452Z,0.40
2022-10-19T04:34:25.492Z,4.75
2022-10-19T04:36:53.581Z,4.05
2022-10-19T04:39:20.863Z,4.47
2022-10-19T04:41:47.885Z,0.40
2022-10-19T04:44:15.678Z,1.13
2022-10-19T04:46:42.795Z,1.67
2022-10-19T04:49:09.837Z,0.90
2022-10-19T04:51:37.179Z,1.67
2022-10-19T04:54:04.743Z,1.73
2022-10-19T04:56:32.612Z,1.13
2022-10-19T04:59:00.774Z,0.35
2022-10-19T05:01:29.848Z,0.60
2022-10-19T05:03:59.791Z,1.02
2022-10-19T05:06:27.449Z,0.60
2022-10-19T05:08:54.628Z,2.47
2022-10-19T05:11:22.025Z,1.27
2022-10-19T05:13:49.438Z,1.42
2022-10-19T05:16:19.388Z,1.23
2022-10-19T05:18:51.191Z,1.50
2022-10-19T05:21:19.266Z,0.68
2022-10-19T05:23:46.538Z,0.63
2022-10-19T05:26:18.808Z,0.57
2022-10-19T05:28:57.156Z,1.15
2022-10-19T05:31:26.829Z,1.02
2022-10-19T05:33:54.411Z,2.58
2022-10-19T05:36:27.124Z,2.33
2022-10-19T05:38:57.082Z,0.90
2022-10-19T05:41:25.497Z,0.35
2022-10-19T05:43:54.762Z,0.77
2022-10-19T05:46:22.060Z,0.47
2022-10-19T05:48:49.241Z,0.30
2022-10-19T05:51:19.592Z,0.63
2022-10-19T05:53:47.172Z,0.63
2022-10-19T05:56:17.124Z,2.42
2022-10-19T05:58:45.030Z,0.45
2022-10-19T06:01:12.833Z,0.88
2022-10-19T06:03:40.506Z,0.30
2022-10-19T06:06:09.017Z,0.65
2022-10-19T06:08:36.884Z,0.70
2022-10-19T06:11:09.843Z,1.40
2022-10-19T06:13:37.819Z,0.40
2022-10-19T06:16:06.105Z,0.70
2022-10-19T06:18:34.054Z,1.85
2022-10-19T06:21:11.105Z,0.50
2022-10-19T06:23:38.353Z,1.17
2022-10-19T06:26:09.312Z,2.42
2022-10-19T06:28:38.079Z,2.58
2022-10-19T06:31:08.433Z,1.23
2022-10-19T06:33:36.566Z,1.83
2022-10-19T06:36:12.755Z,1.60
2022-10-19T06:38:40.541Z,0.35
2022-10-19T06:41:07.659Z,1.73
2022-10-19T06:43:35.348Z,4.15
2022-10-19T06:46:11.313Z,0.45
2022-10-19T06:48:39.035Z,0.80
2022-10-19T06:51:07.866Z,2.47
2022-10-19T06:53:36.395Z,1.02
2022-10-19T06:56:06.306Z,2.63
2022-10-19T06:58:37.478Z,0.98
2022-10-19T07:01:07.871Z,1.35
2022-10-19T07:03:35.861Z,4.50
2022-10-19T07:06:08.303Z,3.38
2022-10-19T07:08:37.192Z,4.30
2022-10-19T07:11:07.996Z,3.58
2022-10-19T07:13:35.596Z,4.70
2022-10-19T07:16:15.993Z,9.00
2022-10-19T07:18:47.667Z,10.02
2022-10-19T07:21:16.697Z,8.50
2022-10-19T07:23:45.685Z,5.68
2022-10-19T07:26:16.984Z,2.78
2022-10-19T07:28:46.649Z,3.17
2022-10-19T07:31:20.777Z,3.58
2022-10-19T07:33:52.149Z,2.13
2022-10-19T07:36:19.417Z,7.85
2022-10-19T07:38:46.541Z,2.88
2022-10-19T07:41:17.975Z,1.17
2022-10-19T07:46:18.684Z,1.73
2022-10-19T07:48:46.594Z,2.40
2022-10-19T07:51:15.486Z,1.08
2022-10-19T07:53:43.412Z,2.50
2022-10-19T07:56:19.276Z,2.85
2022-10-19T07:58:46.543Z,1.85
2022-10-19T08:01:13.615Z,3.38
2022-10-19T08:06:28.898Z,2.67
2022-10-19T08:08:56.425Z,1.77
2022-10-19T08:11:29.596Z,1.30
2022-10-19T08:13:59.393Z,1.88
2022-10-19T08:16:37.667Z,2.97
2022-10-19T08:19:13.426Z,1.52
2022-10-19T08:21:43.056Z,1.60
2022-10-19T08:24:11.190Z,1.73
2022-10-19T08:26:39.361Z,2.08
2022-10-19T08:29:16.025Z,2.88
2022-10-19T08:31:45.109Z,1.23
2022-10-19T08:34:13.077Z,3.38
2022-10-19T08:39:13.093Z,4.47
2022-10-19T08:42:06.941Z,7.22
2022-10-19T08:45:09.435Z,8.60
2022-10-19T08:47:52.177Z,8.95
2022-10-19T08:50:44.228Z,6.18
2022-10-19T08:53:52.650Z,4.55
2022-10-19T08:56:50.975Z,5.47
2022-10-19T08:59:21.192Z,5.38
2022-10-19T09:01:53.927Z,4.75
2022-10-19T09:04:28.823Z,3.05
2022-10-19T09:07:14.133Z,5.15
2022-10-19T09:09:49.478Z,4.32
2022-10-19T09:12:25.083Z,5.85
2022-10-19T09:15:02.735Z,4.20
2022-10-19T09:17:31.352Z,2.80
2022-10-19T09:20:13.910Z,2.00
2022-10-19T09:22:43.975Z,2.42
2022-10-19T09:25:18.599Z,2.33
2022-10-19T09:27:49.509Z,2.58
2022-10-19T09:30:18.929Z,1.20
2022-10-19T09:32:47.345Z,0.93
2022-10-19T09:35:17.186Z,1.05
2022-10-19T09:37:48.048Z,2.38
2022-10-19T09:40:27.351Z,1.60
2022-10-19T09:42:58.464Z,1.70
2022-10-19T09:45:50.443Z,0.65
2022-10-19T09:48:21.076Z,0.57
2022-10-19T09:50:55.815Z,0.83
2022-10-19T09:53:23.393Z,5.75
2022-10-19T09:56:03.615Z,0.65
2022-10-19T09:58:33.092Z,1.55
2022-10-19T10:01:01.304Z,1.38
2022-10-19T10:03:43.825Z,1.30
2022-10-19T10:06:15.352Z,3.88
2022-10-19T10:11:27.283Z,1.80
2022-10-19T10:13:56.305Z,0.65
2022-10-19T10:16:25.307Z,0.57
2022-10-19T10:19:03.828Z,0.68
2022-10-19T10:21:52.865Z,0.50
2022-10-19T10:24:22.161Z,0.75
2022-10-19T10:27:14.003Z,0.80
2022-10-19T10:32:23.897Z,2.53
2022-10-19T10:35:05.080Z,1.13
2022-10-19T10:37:42.450Z,0.45
2022-10-19T10:40:29.118Z,0.50
2022-10-19T10:43:19.216Z,1.00
2022-10-19T10:45:51.721Z,0.65
2022-10-19T10:48:44.776Z,3.10
2022-10-19T10:51:23.628Z,0.55
2022-10-19T10:53:50.657Z,0.82
2022-10-19T10:56:27.943Z,2.15
2022-10-19T10:59:03.098Z,2.42
2022-10-19T11:01:57.414Z,0.82
2022-10-19T11:04:29.864Z,1.27
2022-10-19T11:07:15.164Z,0.47
2022-10-19T11:09:53.990Z,0.40
2022-10-19T11:12:48.076Z,1.95
2022-10-19T11:15:36.263Z,0.40
2022-10-19T11:18:23.203Z,0.20
2022-10-19T11:21:02.247Z,0.30
2022-10-19T11:23:48.832Z,0.20
2022-10-19T11:26:52.468Z,0.38
2022-10-19T11:29:25.544Z,0.50
2022-10-19T11:31:55.522Z,1.85
2022-10-19T11:34:37.376Z,0.93
2022-10-19T11:37:49.896Z,1.73
2022-10-19T11:40:40.240Z,0.60
2022-10-19T11:43:38.835Z,0.77
2022-10-19T11:46:21.781Z,1.60
2022-10-19T11:48:54.727Z,0.77
2022-10-19T11:51:30.924Z,0.30
2022-10-19T11:54:14.460Z,0.30
2022-10-19T11:57:02.212Z,0.30
2022-10-19T11:59:36.641Z,1.00
2022-10-19T12:02:13.022Z,1.95
2022-10-19T12:04:51.296Z,0.82
2022-10-19T12:07:27.411Z,1.10
2022-10-19T12:10:07.658Z,0.40
2022-10-19T12:12:44.594Z,3.83
2022-10-19T12:15:11.564Z,0.73
2022-10-19T12:17:42.697Z,0.35
2022-10-19T12:20:36.148Z,2.35
2022-10-19T12:23:31.903Z,0.30
2022-10-19T12:26:02.305Z,0.82
2022-10-19T12:28:32.816Z,0.73
2022-10-19T12:31:02.387Z,1.17
2022-10-19T12:33:42.866Z,2.67
2022-10-19T12:36:17.001Z,0.65
2022-10-19T12:39:08.384Z,0.63
2022-10-19T12:41:44.417Z,0.40
2022-10-19T12:44:35.753Z,0.77
2022-10-19T12:47:14.741Z,1.65
2022-10-19T12:49:46.425Z,0.50
2022-10-19T12:52:15.966Z,0.40
2022-10-19T12:54:44.356Z,0.93
2022-10-19T12:57:29.364Z,0.55
2022-10-19T13:00:03.916Z,0.43
2022-10-19T13:02:35.708Z,0.47
2022-10-19T13:05:03.901Z,0.60
2022-10-19T13:07:34.590Z,0.20
2022-10-19T13:10:05.792Z,0.47
2022-10-19T13:12:45.899Z,0.25
2022-10-19T13:15:37.816Z,0.52
2022-10-19T13:18:17.173Z,0.65
2022-10-19T13:20:53.975Z,0.80
2022-10-19T13:23:27.274Z,0.30
2022-10-19T13:26:33.071Z,0.85
2022-10-19T13:29:00.531Z,1.02
2022-10-19T13:31:30.651Z,0.30
2022-10-19T13:33:58.200Z,0.20
2022-10-19T13:36:26.367Z,0.93
2022-10-19T13:38:59.265Z,0.30
2022-10-19T13:41:28.788Z,1.67
2022-10-19T13:44:15.426Z,0.30
2022-10-19T13:47:06.954Z,0.30
2022-10-19T13:49:55.745Z,0.60
2022-10-19T13:52:42.179Z,0.52
2022-10-19T13:55:47.173Z,3.05
2022-10-19T13:58:36.251Z,1.48
2022-10-19T14:01:34.849Z,0.70
2022-10-19T14:04:18.876Z,0.30
2022-10-19T14:07:00.981Z,2.42
2022-10-19T14:09:37.147Z,0.40
2022-10-19T14:12:09.193Z,1.10
2022-10-19T14:17:20.586Z,1.10
2022-10-19T14:19:52.310Z,0.20
2022-10-19T14:22:24.382Z,0.30
2022-10-19T14:24:51.614Z,0.85
2022-10-19T14:27:25.581Z,1.30
2022-10-19T14:29:54.378Z,1.33
2022-10-19T14:32:28.226Z,0.65
2022-10-19T14:35:01.206Z,1.65
2022-10-19T14:37:28.734Z,1.05
2022-10-19T14:40:07.436Z,0.80
2022-10-19T14:42:44.356Z,1.48
2022-10-19T14:45:31.952Z,1.13
2022-10-19T14:48:02.062Z,2.55
2022-10-19T14:50:39.321Z,2.05
2022-10-19T14:53:54.755Z,1.77
2022-10-19T14:56:25.117Z,6.72
2022-10-19T14:58:59.354Z,1.73
2022-10-19T15:01:26.802Z,0.65
2022-10-19T15:03:54.229Z,0.40
2022-10-19T15:06:29.361Z,0.40
2022-10-19T15:09:09.332Z,0.43
2022-10-19T15:11:47.123Z,0.80
2022-10-19T15:16:54.761Z,0.98
2022-10-19T15:19:39.689Z,0.65
2022-10-19T15:22:09.740Z,1.08
2022-10-19T15:24:37.014Z,0.57
2022-10-19T15:27:21.462Z,1.33
2022-10-19T15:29:56.452Z,0.50
2022-10-19T15:32:26.859Z,0.45
2022-10-19T15:34:53.963Z,0.82
2022-10-19T15:37:23.478Z,0.43
2022-10-19T15:39:52.052Z,2.15
2022-10-19T15:42:44.578Z,3.35
2022-10-19T15:45:35.609Z,1.63
2022-10-19T15:48:16.970Z,1.40
2022-10-19T15:50:48.008Z,1.13
2022-10-19T15:53:16.454Z,0.77
2022-10-19T15:55:43.730Z,0.75
2022-10-19T15:58:12.140Z,1.50
2022-10-19T16:00:40.135Z,1.40
2022-10-19T16:03:07.281Z,1.33
2022-10-19T16:05:36.520Z,2.80
2022-10-19T16:08:05.461Z,6.18
2022-10-19T16:10:34.777Z,3.25
2022-10-19T16:13:01.860Z,3.20
2022-10-19T16:15:28.951Z,1.98
2022-10-19T16:17:59.743Z,0.90
2022-10-19T16:20:28.987Z,0.65
2022-10-19T16:22:56.757Z,2.92
2022-10-19T16:25:24.091Z,4.03
2022-10-19T16:27:51.160Z,1.50
2022-10-19T16:30:18.266Z,1.25
2022-10-19T16:32:47.622Z,0.70
2022-10-19T16:35:14.716Z,0.90
2022-10-19T16:37:41.835Z,0.88
2022-10-19T16:40:10.059Z,1.75
2022-10-19T16:42:37.547Z,1.90
2022-10-19T16:45:05.106Z,1.48
2022-10-19T16:47:32.274Z,2.78
2022-10-19T16:50:01.301Z,4.63
2022-10-19T16:52:31.570Z,1.20
2022-10-19T16:55:00.195Z,0.95
2022-10-19T16:57:27.489Z,1.02
2022-10-19T16:59:54.726Z,2.10
2022-10-19T17:02:22.556Z,0.60
2022-10-19T17:04:49.742Z,1.85
2022-10-19T17:07:17.116Z,1.50
2022-10-19T17:09:44.877Z,1.98
2022-10-19T17:12:12.867Z,1.95
2022-10-19T17:14:41.530Z,1.42
2022-10-19T17:17:10.444Z,1.27
2022-10-19T17:19:38.431Z,4.82
2022-10-19T17:22:05.790Z,1.38
2022-10-19T17:24:33.430Z,1.58
2022-10-19T17:27:03.060Z,2.85
2022-10-19T17:29:30.232Z,2.35
2022-10-19T17:31:57.520Z,2.40
2022-10-19T17:34:24.669Z,1.88
2022-10-19T17:36:51.718Z,1.80
2022-10-19T17:39:25.626Z,1.35
2022-10-19T17:42:03.182Z,4.32
2022-10-19T17:44:31.861Z,4.35
2022-10-19T17:47:00.718Z,3.72
2022-10-19T17:49:30.025Z,3.63
2022-10-19T17:51:57.759Z,1.75
2022-10-19T17:54:24.824Z,2.35
2022-10-19T17:56:51.888Z,1.85
2022-10-19T17:59:30.225Z,2.67
2022-10-19T18:02:02.530Z,0.70
2022-10-19T18:04:29.771Z,1.60
2022-10-19T18:06:56.844Z,5.65
2022-10-19T18:09:23.849Z,1.80
2022-10-19T18:11:50.966Z,1.58
2022-10-19T18:14:18.000Z,3.13
2022-10-19T18:16:46.807Z,2.22
2022-10-19T18:19:16.673Z,4.95
2022-10-19T18:21:46.221Z,6.45
2022-10-19T18:24:21.511Z,5.85
2022-10-19T18:26:50.593Z,4.93
2022-10-19T18:29:23.648Z,6.18
2022-10-19T18:31:52.510Z,6.53
2022-10-19T18:34:25.547Z,7.05
2022-10-19T18:36:53.653Z,4.95
2022-10-19T18:39:21.394Z,3.58
2022-10-19T18:41:52.700Z,6.22
2022-10-19T18:44:25.232Z,6.10
2022-10-19T18:46:54.556Z,3.72
2022-10-19T18:49:21.753Z,4.35
2022-10-19T18:51:54.117Z,4.13
2022-10-19T18:54:23.500Z,4.53
2022-10-19T18:56:50.567Z,4.38
2022-10-19T18:59:18.772Z,3.95
2022-10-19T19:01:46.733Z,3.28
2022-10-19T19:04:14.494Z,3.10
2022-10-19T19:06:42.325Z,4.97
2022-10-19T19:09:11.855Z,8.70
2022-10-19T19:11:41.181Z,3.22
2022-10-19T19:14:17.872Z,1.83
2022-10-19T19:16:45.870Z,5.18
2022-10-19T19:19:15.232Z,4.05
2022-10-19T19:21:44.789Z,5.93
2022-10-19T19:24:18.031Z,4.97
2022-10-19T19:26:52.299Z,8.07
2022-10-19T19:29:21.094Z,8.45
2022-10-19T19:31:48.929Z,2.42
2022-10-19T19:34:16.348Z,5.75
2022-10-19T19:36:47.955Z,4.10
2022-10-19T19:39:18.814Z,4.20
2022-10-19T19:41:46.408Z,4.20
2022-10-19T19:44:13.617Z,2.53
2022-10-19T19:46:40.762Z,2.50
2022-10-19T19:49:07.863Z,5.53
2022-10-19T19:51:35.437Z,6.25
2022-10-19T19:54:02.897Z,2.38
2022-10-19T19:56:30.030Z,3.25
2022-10-19T19:58:59.083Z,1.95
2022-10-19T20:01:27.476Z,2.90
2022-10-19T20:03:54.944Z,3.83
2022-10-19T20:06:25.156Z,1.33
2022-10-19T20:08:54.766Z,3.25
2022-10-19T20:11:22.980Z,4.32
2022-10-19T20:13:50.479Z,1.90
2022-10-19T20:16:26.533Z,2.45
2022-10-19T20:19:05.403Z,7.35
2022-10-19T20:21:34.029Z,3.50
2022-10-19T20:24:01.396Z,3.78
2022-10-19T20:26:28.913Z,4.35
2022-10-19T20:28:56.548Z,2.33
2022-10-19T20:31:24.163Z,2.78
2022-10-19T20:33:51.638Z,4.65
2022-10-19T20:36:24.240Z,2.08
2022-10-19T20:38:57.035Z,2.72
2022-10-19T20:41:26.594Z,4.32
2022-10-19T20:43:54.650Z,2.45
2022-10-19T20:46:27.822Z,2.80
2022-10-19T20:48:57.005Z,4.43
2022-10-19T20:51:33.125Z,4.25
2022-10-19T20:54:02.253Z,2.00
2022-10-19T20:56:32.051Z,6.40
2022-10-19T21:01:35.696Z,4.25
2022-10-19T21:04:05.274Z,13.48
2022-10-19T21:06:35.066Z,18.15
2022-10-19T21:09:02.195Z,15.68
2022-10-19T21:11:35.326Z,12.45
2022-10-19T21:14:04.721Z,12.80
2022-10-19T21:16:35.457Z,6.82
2022-10-19T21:19:05.081Z,5.47
2022-10-19T21:21:38.660Z,4.50
2022-10-19T21:24:21.505Z,5.13
2022-10-19T21:26:48.969Z,3.42
2022-10-19T21:29:17.326Z,2.45
2022-10-19T21:31:48.773Z,2.42
2022-10-19T21:34:19.465Z,2.53
2022-10-19T21:36:47.209Z,1.65
2022-10-19T21:39:14.632Z,1.23
2022-10-19T21:41:42.178Z,1.48
2022-10-19T21:44:09.347Z,1.10
2022-10-19T21:46:36.446Z,1.40
2022-10-19T21:49:04.015Z,1.15
2022-10-19T21:51:48.988Z,3.05
2022-10-19T21:54:19.063Z,2.60
2022-10-19T21:56:46.991Z,1.52
2022-10-19T21:59:14.777Z,0.88
2022-10-19T22:01:42.640Z,1.27
2022-10-19T22:04:13.609Z,2.42
2022-10-19T22:06:41.246Z,0.85
2022-10-19T22:09:10.766Z,1.13
2022-10-19T22:11:37.941Z,2.40
2022-10-19T22:14:05.473Z,1.85
2022-10-19T22:16:35.399Z,2.15
2022-10-19T22:19:02.761Z,2.50
2022-10-19T22:21:31.299Z,6.28
2022-10-19T22:24:07.557Z,5.22
2022-10-19T22:26:40.521Z,3.22
2022-10-19T22:29:08.075Z,1.77
2022-10-19T22:31:36.585Z,2.58
2022-10-19T22:34:16.823Z,2.28
2022-10-19T22:36:44.443Z,3.80
2022-10-19T22:39:11.957Z,3.35
2022-10-19T22:42:35.366Z,5.47
2022-10-19T22:45:02.639Z,1.73
2022-10-19T22:47:29.628Z,1.15
2022-10-19T22:49:56.810Z,2.25
2022-10-19T22:52:23.801Z,1.70
2022-10-19T22:54:51.958Z,1.23
2022-10-19T22:57:19.209Z,0.90
2022-10-19T22:59:46.175Z,1.08
2022-10-19T23:02:13.179Z,0.70
2022-10-19T23:04:40.452Z,2.35
2022-10-19T23:07:07.477Z,2.42
2022-10-19T23:09:34.494Z,2.88
2022-10-19T23:12:01.701Z,2.00
2022-10-19T23:14:28.688Z,4.32
2022-10-19T23:16:55.696Z,3.58
2022-10-19T23:19:22.737Z,4.68
2022-10-19T23:21:49.729Z,7.18
2022-10-19T23:24:16.799Z,1.77
2022-10-19T23:26:43.887Z,2.40
2022-10-19T23:29:10.884Z,1.42
2022-10-19T23:31:38.573Z,0.98
2022-10-19T23:34:05.562Z,4.20
2022-10-19T23:36:32.555Z,3.90
2022-10-19T23:38:59.586Z,1.15
2022-10-19T23:41:26.640Z,2.03
2022-10-19T23:43:53.906Z,2.25
2022-10-19T23:46:20.932Z,2.15
2022-10-19T23:48:47.986Z,0.95
2022-10-19T23:51:17.883Z,3.35
2022-10-19T23:53:46.754Z,1.33
2022-10-19T23:56:20.304Z,1.38
2022-10-19T23:58:47.645Z,1.63
